createdAt,value
2023-05-18T00:00:19.395Z,99.90
2023-05-18T00:02:48.671Z,99.70
2023-05-18T00:05:18.059Z,99.70
2023-05-18T00:07:45.598Z,99.70
2023-05-18T00:10:12.333Z,99.50
2023-05-18T00:12:39.133Z,99.30
2023-05-18T00:15:06.330Z,99.50
2023-05-18T00:17:33.105Z,99.50
2023-05-18T00:20:00.901Z,99.60
2023-05-18T00:22:27.661Z,99.90
2023-05-18T00:24:54.371Z,99.40
2023-05-18T00:27:21.003Z,99.00
2023-05-18T00:29:47.687Z,99.20
2023-05-18T00:32:14.336Z,99.30
2023-05-18T00:34:40.982Z,99.30
2023-05-18T00:37:07.639Z,99.30
2023-05-18T00:39:34.342Z,99.90
2023-05-18T00:42:01.110Z,99.90
2023-05-18T00:44:27.762Z,99.70
2023-05-18T00:46:54.440Z,99.60
2023-05-18T00:49:21.273Z,99.80
2023-05-18T00:51:48.366Z,99.90
2023-05-18T00:54:16.162Z,99.90
2023-05-18T00:56:46.712Z,99.90
2023-05-18T00:59:13.796Z,99.90
2023-05-18T01:01:46.221Z,99.90
2023-05-18T01:04:16.064Z,99.90
2023-05-18T01:06:43.641Z,99.90
2023-05-18T01:09:12.393Z,99.70
2023-05-18T01:11:53.982Z,99.90
2023-05-18T01:14:39.195Z,99.90
2023-05-18T01:17:23.510Z,99.90
2023-05-18T01:20:27.079Z,99.90
2023-05-18T01:23:24.009Z,99.90
2023-05-18T01:25:59.337Z,99.90
2023-05-18T01:28:30.375Z,99.90
2023-05-18T01:30:58.272Z,99.90
2023-05-18T01:33:25.651Z,99.90
2023-05-18T01:35:52.629Z,99.90
2023-05-18T01:38:22.830Z,99.90
2023-05-18T01:41:10.994Z,99.90
2023-05-18T01:43:50.053Z,99.90
2023-05-18T01:46:29.288Z,99.90
2023-05-18T01:49:01.358Z,99.90
2023-05-18T01:51:33.783Z,99.90
2023-05-18T01:54:07.671Z,99.90
2023-05-18T01:56:36.107Z,99.90
2023-05-18T01:59:03.324Z,99.90
2023-05-18T02:01:30.483Z,99.90
2023-05-18T02:03:57.345Z,99.90
2023-05-18T02:06:24.252Z,99.90
2023-05-18T02:08:51.680Z,99.90
2023-05-18T02:11:18.506Z,99.90
2023-05-18T02:13:45.215Z,99.90
2023-05-18T02:16:11.966Z,99.90
2023-05-18T02:18:38.704Z,99.90
2023-05-18T02:21:05.421Z,99.90
2023-05-18T02:23:32.369Z,99.90
2023-05-18T02:25:59.158Z,99.90
2023-05-18T02:28:26.897Z,99.90
2023-05-18T02:30:53.593Z,99.90
2023-05-18T02:33:26.055Z,99.90
2023-05-18T02:35:53.358Z,99.90
2023-05-18T02:38:20.261Z,99.90
2023-05-18T02:40:47.024Z,99.90
2023-05-18T02:43:13.761Z,99.90
2023-05-18T02:45:40.485Z,99.90
2023-05-18T02:48:07.249Z,99.90
2023-05-18T02:50:33.926Z,99.90
2023-05-18T02:53:00.566Z,99.90
2023-05-18T02:55:28.888Z,99.90
2023-05-18T02:57:57.388Z,99.90
2023-05-18T03:00:24.323Z,99.90
2023-05-18T03:02:51.050Z,99.90
2023-05-18T03:05:18.531Z,99.90
2023-05-18T03:07:50.765Z,99.90
2023-05-18T03:10:17.911Z,99.90
2023-05-18T03:12:44.644Z,99.90
2023-05-18T03:15:11.786Z,99.90
2023-05-18T03:17:48.043Z,99.90
2023-05-18T03:20:15.522Z,99.90
2023-05-18T03:22:42.337Z,99.90
2023-05-18T03:25:09.054Z,99.90
2023-05-18T03:27:37.821Z,99.90
2023-05-18T03:30:04.923Z,99.90
2023-05-18T03:32:33.229Z,99.90
2023-05-18T03:35:01.209Z,99.90
2023-05-18T03:37:27.976Z,99.90
2023-05-18T03:39:55.659Z,99.90
2023-05-18T03:42:22.944Z,99.90
2023-05-18T03:44:49.594Z,99.90
2023-05-18T03:47:16.285Z,99.90
2023-05-18T03:49:42.967Z,99.80
2023-05-18T03:52:09.611Z,99.90
2023-05-18T03:54:36.397Z,99.90
2023-05-18T03:57:03.216Z,99.90
2023-05-18T03:59:29.848Z,99.90
2023-05-18T04:01:56.700Z,99.90
2023-05-18T04:04:23.702Z,99.40
2023-05-18T04:06:53.312Z,99.00
2023-05-18T04:09:20.747Z,99.10
2023-05-18T04:11:47.449Z,98.90
2023-05-18T04:14:14.341Z,99.00
2023-05-18T04:16:41.763Z,98.90
2023-05-18T04:19:08.777Z,98.90
2023-05-18T04:21:36.077Z,99.50
2023-05-18T04:24:05.488Z,99.10
2023-05-18T04:26:36.714Z,99.60
2023-05-18T04:29:03.612Z,99.90
2023-05-18T04:31:30.501Z,99.60
2023-05-18T04:33:59.866Z,99.70
2023-05-18T04:36:30.493Z,99.20
2023-05-18T04:39:00.877Z,99.50
2023-05-18T04:41:27.515Z,99.30
2023-05-18T04:43:54.275Z,99.50
2023-05-18T04:46:23.827Z,99.50
2023-05-18T04:48:50.465Z,98.10
2023-05-18T04:51:21.542Z,98.70
2023-05-18T04:53:50.149Z,99.10
2023-05-18T04:56:22.677Z,98.90
2023-05-18T04:58:49.705Z,99.10
2023-05-18T05:01:16.516Z,98.90
2023-05-18T05:03:43.850Z,98.70
2023-05-18T05:06:11.672Z,98.60
2023-05-18T05:08:38.488Z,98.60
2023-05-18T05:11:05.272Z,98.50
2023-05-18T05:13:32.941Z,98.40
2023-05-18T05:15:59.692Z,98.10
2023-05-18T05:18:26.446Z,98.20
2023-05-18T05:20:54.062Z,98.90
2023-05-18T05:23:20.811Z,98.60
2023-05-18T05:25:47.445Z,99.00
2023-05-18T05:28:14.102Z,99.20
2023-05-18T05:30:40.883Z,99.10
2023-05-18T05:33:07.755Z,98.80
2023-05-18T05:35:34.481Z,98.70
2023-05-18T05:38:01.449Z,99.10
2023-05-18T05:40:28.149Z,98.30
2023-05-18T05:42:54.830Z,98.00
2023-05-18T05:45:21.640Z,97.70
2023-05-18T05:47:49.519Z,97.80
2023-05-18T05:50:16.302Z,98.00
2023-05-18T05:52:42.941Z,98.50
2023-05-18T05:55:09.717Z,98.30
2023-05-18T05:57:36.500Z,98.40
2023-05-18T06:00:04.827Z,97.70
2023-05-18T06:02:31.775Z,97.40
2023-05-18T06:04:58.499Z,97.40
2023-05-18T06:07:25.231Z,97.60
2023-05-18T06:09:51.899Z,97.30
2023-05-18T06:12:18.590Z,97.20
2023-05-18T06:14:45.260Z,97.60
2023-05-18T06:17:11.969Z,97.60
2023-05-18T06:19:38.612Z,97.60
2023-05-18T06:22:05.601Z,98.40
2023-05-18T06:24:32.223Z,98.20
2023-05-18T06:26:59.483Z,98.60
2023-05-18T06:29:26.179Z,98.30
2023-05-18T06:31:53.054Z,98.70
2023-05-18T06:34:19.760Z,98.00
2023-05-18T06:36:46.569Z,98.10
2023-05-18T06:39:13.212Z,97.80
2023-05-18T06:41:39.997Z,98.10
2023-05-18T06:44:06.781Z,98.40
2023-05-18T06:46:33.675Z,98.70
2023-05-18T06:49:01.223Z,98.70
2023-05-18T06:51:27.962Z,97.80
2023-05-18T06:53:54.642Z,97.80
2023-05-18T06:56:21.953Z,98.30
2023-05-18T06:58:49.090Z,97.60
2023-05-18T07:01:17.876Z,98.00
2023-05-18T07:03:44.773Z,97.90
2023-05-18T07:06:11.645Z,97.30
2023-05-18T07:08:38.364Z,97.00
2023-05-18T07:11:05.408Z,96.40
2023-05-18T07:13:32.519Z,97.40
2023-05-18T07:15:59.299Z,97.10
2023-05-18T07:18:26.550Z,97.20
2023-05-18T07:20:53.219Z,96.50
2023-05-18T07:23:20.006Z,96.90
2023-05-18T07:25:46.843Z,97.00
2023-05-18T07:28:13.564Z,96.80
2023-05-18T07:30:40.269Z,97.20
2023-05-18T07:33:07.031Z,97.30
2023-05-18T07:35:33.969Z,97.30
2023-05-18T07:38:00.938Z,97.20
2023-05-18T07:40:27.673Z,96.70
2023-05-18T07:42:54.410Z,96.70
2023-05-18T07:45:21.885Z,96.80
2023-05-18T07:47:48.681Z,96.10
2023-05-18T07:50:15.365Z,96.30
2023-05-18T07:52:42.269Z,95.80
2023-05-18T07:55:09.238Z,96.00
2023-05-18T07:57:36.242Z,95.40
2023-05-18T08:00:06.440Z,96.10
2023-05-18T08:02:34.485Z,95.60
2023-05-18T08:05:01.345Z,95.20
2023-05-18T08:07:30.136Z,95.20
2023-05-18T08:09:57.129Z,95.10
2023-05-18T08:12:24.614Z,95.60
2023-05-18T08:14:51.535Z,94.50
2023-05-18T08:17:19.613Z,94.80
2023-05-18T08:19:47.508Z,95.20
2023-05-18T08:22:15.492Z,95.20
2023-05-18T08:24:42.217Z,94.90
2023-05-18T08:27:11.150Z,94.00
2023-05-18T08:29:38.062Z,94.10
2023-05-18T08:32:08.080Z,94.10
2023-05-18T08:34:35.153Z,94.70
2023-05-18T08:37:01.818Z,94.00
2023-05-18T08:39:31.685Z,94.00
2023-05-18T08:42:02.350Z,93.20
2023-05-18T08:44:42.887Z,93.60
2023-05-18T08:47:11.360Z,93.60
2023-05-18T08:49:40.570Z,94.10
2023-05-18T08:52:08.967Z,94.10
2023-05-18T08:54:37.523Z,93.30
2023-05-18T08:57:11.668Z,93.70
2023-05-18T08:59:42.019Z,93.20
2023-05-18T09:02:09.952Z,93.70
2023-05-18T09:04:38.136Z,93.30
2023-05-18T09:07:07.226Z,93.60
2023-05-18T09:09:35.467Z,93.50
2023-05-18T09:12:02.664Z,93.10
2023-05-18T09:14:31.622Z,94.50
2023-05-18T09:16:58.437Z,94.10
2023-05-18T09:19:25.306Z,93.10
2023-05-18T09:21:52.038Z,94.10
2023-05-18T09:24:20.602Z,93.10
2023-05-18T09:26:48.700Z,91.90
2023-05-18T09:29:19.974Z,91.20
2023-05-18T09:31:47.533Z,91.00
2023-05-18T09:34:15.529Z,91.00
2023-05-18T09:36:46.657Z,90.60
2023-05-18T09:39:13.307Z,89.60
2023-05-18T09:41:40.915Z,90.80
2023-05-18T09:44:12.579Z,90.60
2023-05-18T09:46:40.366Z,90.80
2023-05-18T09:49:07.990Z,91.10
2023-05-18T09:51:36.247Z,92.50
2023-05-18T09:54:05.189Z,92.20
2023-05-18T09:56:35.769Z,92.50
2023-05-18T09:59:13.231Z,90.60
2023-05-18T10:02:02.587Z,90.60
2023-05-18T10:04:39.517Z,88.60
2023-05-18T10:07:13.596Z,87.60
2023-05-18T10:09:41.924Z,88.00
2023-05-18T10:12:16.308Z,87.80
2023-05-18T10:14:46.641Z,87.90
2023-05-18T10:17:16.711Z,88.10
2023-05-18T10:19:45.085Z,89.20
2023-05-18T10:22:15.925Z,88.90
2023-05-18T10:24:45.201Z,88.30
2023-05-18T10:27:14.355Z,86.10
2023-05-18T10:29:41.487Z,87.00
2023-05-18T10:32:12.792Z,86.80
2023-05-18T10:34:41.820Z,86.50
2023-05-18T10:37:11.751Z,85.60
2023-05-18T10:39:40.377Z,86.90
2023-05-18T10:42:09.373Z,89.20
2023-05-18T10:44:36.556Z,86.40
2023-05-18T10:47:06.028Z,85.00
2023-05-18T10:49:33.916Z,85.30
2023-05-18T10:52:02.978Z,84.70
2023-05-18T10:54:30.235Z,86.00
2023-05-18T10:56:56.941Z,84.10
2023-05-18T10:59:23.978Z,83.40
2023-05-18T11:01:53.067Z,83.10
2023-05-18T11:04:24.866Z,83.50
2023-05-18T11:06:58.171Z,83.10
2023-05-18T11:09:26.642Z,81.80
2023-05-18T11:12:00.915Z,82.70
2023-05-18T11:14:30.296Z,81.00
2023-05-18T11:17:22.021Z,82.60
2023-05-18T11:20:16.565Z,82.70
2023-05-18T11:22:51.224Z,81.70
2023-05-18T11:25:32.902Z,81.90
2023-05-18T11:28:07.688Z,82.30
2023-05-18T11:30:34.687Z,82.60
2023-05-18T11:33:28.612Z,81.10
2023-05-18T11:36:09.041Z,81.50
2023-05-18T11:38:55.977Z,80.30
2023-05-18T11:41:30.889Z,84.10
2023-05-18T11:44:16.868Z,81.80
2023-05-18T11:46:59.064Z,81.10
2023-05-18T11:49:28.638Z,81.60
2023-05-18T11:52:21.246Z,80.50
2023-05-18T11:54:59.230Z,81.10
2023-05-18T11:57:52.268Z,81.80
2023-05-18T12:00:20.430Z,83.20
2023-05-18T12:02:49.002Z,82.30
2023-05-18T12:05:16.343Z,81.10
2023-05-18T12:07:44.624Z,81.70
2023-05-18T12:10:14.679Z,81.00
2023-05-18T12:12:41.707Z,79.70
2023-05-18T12:15:10.296Z,78.40
2023-05-18T12:17:44.494Z,79.40
2023-05-18T12:20:15.005Z,77.30
2023-05-18T12:22:43.510Z,78.40
2023-05-18T12:25:10.851Z,79.30
2023-05-18T12:27:41.910Z,78.80
2023-05-18T12:30:15.133Z,79.90
2023-05-18T12:32:49.088Z,78.50
2023-05-18T12:35:16.084Z,78.10
2023-05-18T12:37:45.174Z,77.20
2023-05-18T12:40:22.642Z,78.00
2023-05-18T12:42:59.801Z,78.10
2023-05-18T12:45:28.731Z,78.70
2023-05-18T12:47:56.384Z,79.10
2023-05-18T12:50:26.402Z,78.20
2023-05-18T12:52:56.160Z,78.90
2023-05-18T12:55:25.056Z,76.70
2023-05-18T12:58:05.113Z,74.40
2023-05-18T13:00:36.379Z,75.80
2023-05-18T13:03:22.185Z,74.80
2023-05-18T13:06:06.735Z,74.90
2023-05-18T13:08:34.537Z,76.20
2023-05-18T13:11:13.835Z,74.70
2023-05-18T13:14:00.700Z,74.90
2023-05-18T13:16:29.682Z,75.60
2023-05-18T13:19:05.084Z,76.30
2023-05-18T13:21:32.026Z,76.10
2023-05-18T13:23:58.826Z,74.70
2023-05-18T13:26:25.755Z,75.00
2023-05-18T13:28:54.704Z,75.80
2023-05-18T13:31:22.277Z,75.70
2023-05-18T13:33:50.311Z,74.10
2023-05-18T13:36:18.325Z,74.00
2023-05-18T13:38:45.019Z,73.30
2023-05-18T13:41:14.744Z,73.20
2023-05-18T13:43:44.654Z,74.20
2023-05-18T13:46:11.406Z,71.80
2023-05-18T13:48:38.108Z,71.40
2023-05-18T13:51:04.946Z,71.90
2023-05-18T13:53:31.865Z,71.70
2023-05-18T13:55:58.591Z,70.90
2023-05-18T13:58:25.649Z,68.80
2023-05-18T14:00:53.830Z,70.30
2023-05-18T14:03:20.961Z,69.90
2023-05-18T14:05:47.748Z,69.30
2023-05-18T14:08:14.588Z,69.90
2023-05-18T14:10:41.434Z,71.50
2023-05-18T14:13:09.237Z,71.00
2023-05-18T14:15:36.000Z,68.70
2023-05-18T14:18:02.817Z,69.70
2023-05-18T14:20:30.186Z,70.00
2023-05-18T14:22:57.309Z,69.80
2023-05-18T14:25:23.960Z,67.80
2023-05-18T14:27:50.898Z,69.20
2023-05-18T14:30:17.569Z,69.30
2023-05-18T14:32:44.310Z,69.20
2023-05-18T14:35:11.086Z,71.40
2023-05-18T14:37:37.893Z,70.40
2023-05-18T14:40:05.804Z,69.90
2023-05-18T14:42:32.702Z,70.30
2023-05-18T14:44:59.438Z,67.70
2023-05-18T14:47:26.204Z,68.20
2023-05-18T14:49:52.913Z,67.40
2023-05-18T14:52:19.620Z,67.70
2023-05-18T14:54:47.784Z,67.40
2023-05-18T14:57:14.445Z,68.80
2023-05-18T14:59:41.395Z,69.90
2023-05-18T15:02:08.350Z,68.70
2023-05-18T15:04:36.052Z,71.30
2023-05-18T15:07:02.850Z,70.10
2023-05-18T15:09:29.498Z,69.30
2023-05-18T15:11:56.236Z,70.60
2023-05-18T15:14:22.882Z,67.00
2023-05-18T15:16:49.575Z,67.40
2023-05-18T15:19:16.321Z,68.40
2023-05-18T15:21:44.752Z,67.70
2023-05-18T15:24:11.486Z,68.40
2023-05-18T15:26:38.352Z,71.60
2023-05-18T15:29:05.126Z,69.20
2023-05-18T15:31:32.944Z,69.30
2023-05-18T15:33:59.738Z,70.80
2023-05-18T15:36:26.538Z,66.90
2023-05-18T15:38:53.267Z,67.10
2023-05-18T15:41:20.069Z,66.20
2023-05-18T15:43:46.804Z,65.10
2023-05-18T15:46:13.502Z,65.60
2023-05-18T15:48:40.218Z,65.70
2023-05-18T15:51:07.543Z,68.30
2023-05-18T15:53:34.422Z,67.00
2023-05-18T15:56:01.152Z,65.60
2023-05-18T15:58:28.271Z,68.20
2023-05-18T16:00:55.077Z,65.20
2023-05-18T16:03:22.032Z,64.10
2023-05-18T16:05:48.876Z,63.30
2023-05-18T16:08:15.530Z,63.20
2023-05-18T16:10:42.229Z,62.30
2023-05-18T16:13:09.398Z,62.20
2023-05-18T16:15:36.210Z,64.40
2023-05-18T16:18:03.554Z,62.90
2023-05-18T16:20:30.800Z,61.40
2023-05-18T16:22:59.373Z,58.10
2023-05-18T16:25:26.612Z,56.70
2023-05-18T16:27:53.364Z,55.70
2023-05-18T16:30:20.038Z,57.40
2023-05-18T16:32:46.722Z,56.10
2023-05-18T16:35:13.435Z,55.20
2023-05-18T16:37:40.159Z,57.90
2023-05-18T16:40:08.240Z,60.00
2023-05-18T16:42:35.315Z,62.00
2023-05-18T16:45:02.157Z,61.90
2023-05-18T16:47:32.094Z,63.90
2023-05-18T16:49:59.023Z,65.70
2023-05-18T16:52:25.717Z,64.70
2023-05-18T16:54:52.448Z,62.50
2023-05-18T16:57:20.070Z,63.60
2023-05-18T16:59:46.762Z,64.90
2023-05-18T17:02:14.107Z,63.90
2023-05-18T17:04:45.800Z,64.10
2023-05-18T17:07:12.917Z,65.30
2023-05-18T17:09:41.778Z,64.90
2023-05-18T17:12:10.170Z,64.50
2023-05-18T17:14:37.480Z,65.20
2023-05-18T17:17:05.309Z,67.10
2023-05-18T17:19:32.102Z,65.00
2023-05-18T17:21:58.736Z,64.20
2023-05-18T17:24:25.539Z,64.30
2023-05-18T17:26:52.523Z,63.10
2023-05-18T17:29:21.070Z,65.30
2023-05-18T17:31:48.846Z,67.70
2023-05-18T17:34:15.596Z,64.00
2023-05-18T17:36:42.612Z,62.00
2023-05-18T17:39:09.464Z,63.30
2023-05-18T17:41:37.074Z,63.40
2023-05-18T17:44:03.896Z,66.00
2023-05-18T17:46:30.783Z,63.90
2023-05-18T17:48:57.511Z,63.50
2023-05-18T17:51:24.681Z,63.90
2023-05-18T17:53:51.925Z,64.10
2023-05-18T17:56:18.766Z,66.90
2023-05-18T17:58:45.824Z,66.20
2023-05-18T18:01:12.642Z,67.50
2023-05-18T18:03:39.608Z,68.80
2023-05-18T18:06:07.205Z,70.00
2023-05-18T18:08:34.667Z,69.60
2023-05-18T18:11:01.394Z,70.20
2023-05-18T18:13:28.102Z,72.70
2023-05-18T18:15:54.800Z,72.80
2023-05-18T18:18:22.093Z,73.10
2023-05-18T18:20:48.821Z,73.90
2023-05-18T18:23:15.860Z,73.30
2023-05-18T18:25:43.963Z,74.40
2023-05-18T18:28:14.921Z,75.30
2023-05-18T18:30:44.202Z,76.10
2023-05-18T18:33:11.726Z,74.90
2023-05-18T18:35:38.823Z,74.60
2023-05-18T18:38:05.658Z,74.40
2023-05-18T18:40:33.806Z,74.80
2023-05-18T18:43:00.849Z,75.30
2023-05-18T18:45:29.129Z,77.10
2023-05-18T18:47:55.936Z,76.60
2023-05-18T18:50:22.665Z,76.20
2023-05-18T18:52:49.529Z,77.20
2023-05-18T18:55:17.065Z,77.50
2023-05-18T18:57:44.344Z,78.10
2023-05-18T19:00:12.119Z,79.30
2023-05-18T19:02:39.276Z,79.80
2023-05-18T19:05:07.413Z,76.50
2023-05-18T19:07:34.395Z,77.90
2023-05-18T19:10:01.111Z,81.50
2023-05-18T19:12:27.832Z,77.30
2023-05-18T19:14:54.505Z,77.90
2023-05-18T19:17:21.687Z,76.80
2023-05-18T19:19:48.502Z,76.40
2023-05-18T19:22:15.339Z,74.90
2023-05-18T19:24:42.118Z,75.70
2023-05-18T19:27:08.813Z,75.50
2023-05-18T19:29:38.226Z,76.10
2023-05-18T19:32:06.408Z,77.20
2023-05-18T19:34:33.218Z,77.20
2023-05-18T19:36:59.922Z,77.00
2023-05-18T19:39:26.748Z,77.30
2023-05-18T19:41:54.387Z,76.90
2023-05-18T19:44:21.073Z,75.90
2023-05-18T19:46:48.109Z,76.90
2023-05-18T19:49:14.749Z,78.50
2023-05-18T19:51:41.424Z,77.20
2023-05-18T19:54:08.097Z,78.00
2023-05-18T19:56:36.106Z,77.90
2023-05-18T19:59:02.929Z,79.80
2023-05-18T20:01:29.737Z,80.60
2023-05-18T20:03:56.930Z,80.60
2023-05-18T20:06:23.838Z,81.50
2023-05-18T20:08:50.680Z,81.70
2023-05-18T20:11:18.634Z,81.60
2023-05-18T20:13:46.074Z,81.80
2023-05-18T20:16:13.733Z,82.90
2023-05-18T20:18:40.685Z,83.40
2023-05-18T20:21:07.482Z,83.10
2023-05-18T20:23:34.200Z,83.90
2023-05-18T20:26:01.156Z,83.10
2023-05-18T20:28:28.723Z,84.10
2023-05-18T20:30:55.426Z,84.20
2023-05-18T20:33:22.605Z,84.60
2023-05-18T20:35:49.650Z,84.90
2023-05-18T20:38:16.903Z,84.70
2023-05-18T20:40:44.146Z,85.30
2023-05-18T20:43:17.641Z,87.70
2023-05-18T20:45:49.293Z,87.90
2023-05-18T20:48:24.357Z,87.60
2023-05-18T20:50:51.873Z,88.70
2023-05-18T20:53:18.928Z,88.20
2023-05-18T20:55:49.726Z,87.20
2023-05-18T20:58:19.843Z,87.90
2023-05-18T21:00:46.631Z,88.60
2023-05-18T21:03:14.352Z,89.10
2023-05-18T21:05:41.472Z,89.60
2023-05-18T21:08:08.193Z,90.60
2023-05-18T21:10:35.234Z,91.50
2023-05-18T21:13:02.127Z,91.90
2023-05-18T21:15:29.697Z,92.20
2023-05-18T21:17:56.862Z,92.60
2023-05-18T21:20:23.644Z,93.30
2023-05-18T21:22:50.379Z,93.30
2023-05-18T21:25:17.839Z,93.60
2023-05-18T21:27:44.587Z,93.00
2023-05-18T21:30:12.676Z,93.30
2023-05-18T21:32:40.618Z,93.40
2023-05-18T21:35:07.657Z,93.70
2023-05-18T21:37:34.361Z,94.80
2023-05-18T21:40:01.341Z,94.70
2023-05-18T21:42:28.022Z,95.20
2023-05-18T21:44:54.681Z,96.00
2023-05-18T21:47:21.438Z,95.40
2023-05-18T21:49:48.318Z,95.00
2023-05-18T21:52:15.503Z,95.60
2023-05-18T21:54:42.263Z,95.20
2023-05-18T21:57:09.243Z,95.70
2023-05-18T21:59:36.051Z,96.20
2023-05-18T22:02:02.765Z,96.70
2023-05-18T22:04:29.465Z,97.30
2023-05-18T22:06:56.415Z,97.60
2023-05-18T22:09:23.094Z,97.40
2023-05-18T22:11:49.766Z,97.30
2023-05-18T22:14:18.029Z,97.70
2023-05-18T22:16:45.172Z,98.10
2023-05-18T22:19:12.035Z,98.00
2023-05-18T22:21:38.749Z,98.10
2023-05-18T22:24:06.014Z,98.00
2023-05-18T22:26:32.712Z,98.10
2023-05-18T22:28:59.428Z,98.30
2023-05-18T22:31:26.283Z,98.30
2023-05-18T22:33:54.038Z,98.70
2023-05-18T22:36:21.572Z,98.90
2023-05-18T22:38:49.677Z,98.80
2023-05-18T22:41:17.169Z,99.10
2023-05-18T22:43:44.073Z,99.30
2023-05-18T22:46:11.492Z,99.40
2023-05-18T22:48:39.499Z,99.80
2023-05-18T22:51:06.940Z,99.90
2023-05-18T22:53:33.798Z,99.90
2023-05-18T22:56:00.642Z,99.90
2023-05-18T22:58:27.586Z,99.90
2023-05-18T23:00:54.253Z,99.90
2023-05-18T23:03:20.951Z,99.90
2023-05-18T23:05:48.400Z,99.90
2023-05-18T23:08:15.986Z,99.90
2023-05-18T23:10:44.405Z,99.90
2023-05-18T23:13:11.996Z,99.90
2023-05-18T23:15:38.870Z,99.90
2023-05-18T23:18:09.250Z,99.90
2023-05-18T23:20:36.184Z,99.90
2023-05-18T23:23:02.871Z,99.90
2023-05-18T23:25:29.845Z,99.90
2023-05-18T23:27:56.560Z,99.90
2023-05-18T23:30:23.269Z,99.90
2023-05-18T23:32:50.303Z,99.90
2023-05-18T23:35:18.124Z,99.90
2023-05-18T23:37:49.937Z,99.90
2023-05-18T23:40:18.280Z,99.90
2023-05-18T23:42:45.871Z,99.90
2023-05-18T23:45:13.201Z,99.90
2023-05-18T23:47:40.358Z,99.90
2023-05-18T23:50:08.226Z,99.90
2023-05-18T23:52:35.404Z,99.90
2023-05-18T23:55:04.206Z,99.90
2023-05-18T23:57:31.582Z,99.90
2023-05-18T23:59:58.745Z,99.90
